Time;durP1;ratioP1;P1;durP2;ratioP2;P2;SDS_P1;SDS_P2;PMS_P1;PMS_P2;Temp;Humidity;BMP_temperature;BMP_pressure;BME280_temperature;BME280_humidity;BME280_pressure;Samples;Min_cycle;Max_cycle;Signal;HPM_P1;HPM_P2
2021/07/27 00:00:15;;;;;;;13.67;12.27;;;27.00;99.90;;;;;;6127440;23;20187;-64
2021/07/27 00:02:40;;;;;;;17.57;13.60;;;27.00;99.90;;;;;;6127187;23;20171;-64
2021/07/27 00:05:07;;;;;;;18.30;13.97;;;27.00;99.90;;;;;;6127328;23;20398;-68
2021/07/27 00:07:37;;;;;;;15.77;13.47;;;27.00;99.90;;;;;;6126698;23;20195;-65
2021/07/27 00:10:04;;;;;;;15.00;13.20;;;26.90;99.90;;;;;;6127273;23;20397;-67
2021/07/27 00:12:29;;;;;;;16.00;13.53;;;27.00;99.90;;;;;;6126999;23;20398;-64
2021/07/27 00:14:55;;;;;;;13.70;11.37;;;26.90;99.90;;;;;;6127266;23;20429;-64
2021/07/27 00:17:20;;;;;;;16.53;13.90;;;26.90;99.90;;;;;;6126945;23;20176;-68
2021/07/27 00:19:46;;;;;;;15.47;12.80;;;26.90;99.90;;;;;;6125491;23;20235;-64
2021/07/27 00:22:11;;;;;;;18.17;13.53;;;26.90;99.90;;;;;;6126855;23;20175;-68
2021/07/27 00:24:37;;;;;;;15.67;13.93;;;26.90;99.90;;;;;;6127132;23;20191;-68
2021/07/27 00:27:03;;;;;;;15.47;13.90;;;26.90;99.90;;;;;;6126722;23;20222;-68
2021/07/27 00:29:28;;;;;;;18.03;14.23;;;26.90;99.90;;;;;;6127200;23;20167;-64
2021/07/27 00:31:54;;;;;;;19.23;13.70;;;26.90;99.90;;;;;;6126932;23;20250;-68
2021/07/27 00:34:19;;;;;;;14.80;13.00;;;26.80;99.90;;;;;;6125488;23;20160;-68
2021/07/27 00:36:45;;;;;;;17.30;13.47;;;26.80;99.90;;;;;;6126846;23;20168;-64
2021/07/27 00:39:11;;;;;;;17.13;15.13;;;26.80;99.90;;;;;;6126664;23;20195;-67
2021/07/27 00:41:36;;;;;;;14.73;12.93;;;26.80;99.90;;;;;;6125416;23;20183;-67
2021/07/27 00:44:02;;;;;;;19.50;15.03;;;26.80;99.90;;;;;;6126758;23;20147;-64
2021/07/27 00:46:28;;;;;;;17.67;13.00;;;26.80;99.90;;;;;;6126668;23;20202;-64
2021/07/27 00:48:53;;;;;;;15.80;13.67;;;26.80;99.90;;;;;;6126802;23;20155;-64
2021/07/27 00:51:19;;;;;;;15.77;14.10;;;26.80;99.90;;;;;;6127350;23;20183;-68
2021/07/27 00:53:45;;;;;;;17.37;13.17;;;26.80;99.90;;;;;;6126907;23;20227;-67
2021/07/27 00:56:11;;;;;;;16.73;13.87;;;26.80;99.90;;;;;;6125478;23;20398;-64
2021/07/27 00:58:37;;;;;;;15.13;13.53;;;26.80;99.90;;;;;;6126910;23;20187;-68
2021/07/27 01:01:03;;;;;;;16.80;13.33;;;26.70;99.90;;;;;;6127309;23;20382;-68
2021/07/27 01:03:29;;;;;;;15.60;14.07;;;26.70;99.90;;;;;;6126970;23;20397;-68
2021/07/27 01:05:54;;;;;;;15.10;13.37;;;26.70;99.90;;;;;;6127432;23;20386;-68
2021/07/27 01:08:20;;;;;;;14.47;13.03;;;26.60;99.90;;;;;;6126750;23;20559;-64
2021/07/27 01:10:47;;;;;;;14.70;13.17;;;26.60;99.90;;;;;;6127376;23;20156;-64
2021/07/27 01:13:12;;;;;;;15.07;12.97;;;26.50;99.90;;;;;;6126758;23;20176;-64
2021/07/27 01:15:38;;;;;;;15.00;13.50;;;26.50;99.90;;;;;;6127279;23;20378;-64
2021/07/27 01:18:07;;;;;;;14.53;13.07;;;26.50;99.90;;;;;;6125140;23;20511;-64
2021/07/27 01:37:34;;;;;;;14.47;12.90;;;26.50;99.90;;;;;;6129222;23;20433;-67
2021/07/27 01:39:39;;;;;;;15.30;13.27;;;26.50;99.90;;;;;;6128676;23;20716;-68
2021/07/27 01:42:14;;;;;;;15.87;14.17;;;26.50;99.90;;;;;;6128420;23;20860;-64
2021/07/27 01:44:47;;;;;;;15.30;13.70;;;26.40;99.90;;;;;;6128683;23;20440;-64
2021/07/27 01:47:20;;;;;;;18.47;15.70;;;26.40;99.90;;;;;;6128243;23;20488;-64
2021/07/27 01:49:47;;;;;;;15.00;13.40;;;26.40;99.90;;;;;;6128529;23;20469;-64
2021/07/27 01:52:14;;;;;;;15.10;13.50;;;26.30;99.90;;;;;;6128184;23;20493;-67
2021/07/27 01:54:53;;;;;;;15.50;13.80;;;26.30;99.90;;;;;;6128613;23;20406;-68
2021/07/27 01:57:20;;;;;;;13.80;12.10;;;26.20;99.90;;;;;;6128396;23;20704;-68
2021/07/27 01:59:57;;;;;;;15.00;13.67;;;26.20;99.90;;;;;;6128269;23;20780;-64
2021/07/27 02:02:23;;;;;;;18.20;13.93;;;26.10;99.90;;;;;;6128184;23;20393;-68
2021/07/27 02:04:49;;;;;;;14.13;12.73;;;26.00;99.90;;;;;;6128517;23;20386;-67
2021/07/27 02:07:14;;;;;;;15.00;13.50;;;25.90;99.90;;;;;;6126459;23;20202;-68
2021/07/27 02:09:43;;;;;;;14.60;13.10;;;25.90;99.90;;;;;;6128438;23;20163;-67
2021/07/27 02:12:23;;;;;;;14.40;13.00;;;25.80;99.90;;;;;;6126516;23;20211;-64
2021/07/27 02:15:05;;;;;;;15.20;13.70;;;25.70;99.90;;;;;;6128519;23;20382;-64
2021/07/27 02:17:35;;;;;;;15.47;13.97;;;25.70;99.90;;;;;;6128113;23;20468;-64
2021/07/27 02:20:03;;;;;;;15.20;13.80;;;25.60;99.90;;;;;;6128460;23;20384;-68
2021/07/27 02:22:35;;;;;;;15.50;13.47;;;25.60;99.90;;;;;;6128009;23;20401;-68
2021/07/27 02:25:01;;;;;;;17.13;13.50;;;25.60;99.90;;;;;;6128347;23;20500;-64
2021/07/27 02:27:30;;;;;;;16.53;14.67;;;25.60;99.90;;;;;;6127895;23;20496;-66
2021/07/27 02:29:56;;;;;;;17.13;14.53;;;25.60;99.90;;;;;;6126018;23;20472;-68
2021/07/27 02:32:22;;;;;;;14.53;12.93;;;25.60;99.90;;;;;;6127990;23;20398;-64
2021/07/27 02:34:47;;;;;;;15.33;13.40;;;25.60;99.90;;;;;;6128107;23;20156;-65
2021/07/27 02:37:14;;;;;;;16.23;14.13;;;25.60;99.90;;;;;;6127510;23;20267;-68
2021/07/27 02:39:40;;;;;;;15.77;14.17;;;25.60;99.90;;;;;;6126590;23;20171;-68
2021/07/27 02:42:05;;;;;;;16.47;13.80;;;25.60;99.90;;;;;;6127777;23;20398;-68
2021/07/27 02:44:31;;;;;;;15.60;14.10;;;25.60;99.90;;;;;;6126519;23;20195;-68
2021/07/27 02:46:57;;;;;;;16.93;14.50;;;25.50;99.90;;;;;;6127622;23;20191;-64
2021/07/27 02:49:22;;;;;;;14.90;13.50;;;25.50;99.90;;;;;;6127764;23;20172;-68
2021/07/27 02:51:52;;;;;;;16.10;14.40;;;25.50;99.90;;;;;;6127650;23;20181;-67
2021/07/27 02:54:18;;;;;;;15.57;13.97;;;25.50;99.90;;;;;;6127743;23;20148;-65
2021/07/27 02:56:44;;;;;;;16.50;14.80;;;25.50;99.90;;;;;;6127731;23;20863;-68
2021/07/27 02:59:09;;;;;;;16.10;13.90;;;25.40;99.90;;;;;;6125982;23;20397;-67
2021/07/27 03:01:35;;;;;;;16.00;14.40;;;25.40;99.90;;;;;;6127751;23;20262;-67
2021/07/27 03:04:00;;;;;;;16.00;14.20;;;25.40;99.90;;;;;;6127728;23;20148;-65
2021/07/27 03:06:28;;;;;;;16.10;14.40;;;25.30;99.90;;;;;;6128125;23;20257;-67
2021/07/27 03:11:20;;;;;;;15.90;14.30;;;25.30;99.90;;;;;;6128447;23;20570;-64
2021/07/27 03:13:46;;;;;;;17.90;14.80;;;25.30;99.90;;;;;;6127672;23;20160;-67
2021/07/27 03:16:15;;;;;;;16.13;13.87;;;25.30;99.90;;;;;;6128217;23;20485;-67
2021/07/27 03:18:42;;;;;;;16.10;14.50;;;25.30;99.90;;;;;;6127566;23;20176;-67
2021/07/27 03:21:08;;;;;;;17.23;15.43;;;25.20;99.90;;;;;;6126319;23;20992;-67
2021/07/27 03:23:33;;;;;;;16.70;15.10;;;25.20;99.90;;;;;;6126165;23;20378;-67
2021/07/27 03:25:59;;;;;;;16.43;14.30;;;25.20;99.90;;;;;;6127724;23;20195;-64
2021/07/27 03:28:24;;;;;;;15.77;14.17;;;25.10;99.90;;;;;;6127379;23;20198;-66
2021/07/27 03:30:50;;;;;;;16.90;14.47;;;25.10;99.90;;;;;;6127971;23;20458;-67
2021/07/27 03:33:16;;;;;;;19.50;16.37;;;25.10;99.90;;;;;;6127377;23;20178;-67
2021/07/27 03:35:42;;;;;;;16.63;15.03;;;25.10;99.90;;;;;;6126009;23;20413;-67
2021/07/27 03:38:08;;;;;;;17.87;14.53;;;25.10;99.90;;;;;;6127040;23;20573;-64
2021/07/27 03:40:38;;;;;;;17.50;15.70;;;25.10;99.90;;;;;;6126013;23;20435;-67
2021/07/27 03:43:03;;;;;;;15.87;14.23;;;25.10;99.90;;;;;;6127172;23;20393;-64
2021/07/27 03:45:29;;;;;;;16.57;14.83;;;25.10;99.90;;;;;;6127671;23;20394;-67
2021/07/27 03:47:54;;;;;;;16.30;14.43;;;25.10;99.90;;;;;;6127068;23;20336;-68
2021/07/27 03:50:20;;;;;;;17.83;15.77;;;25.10;99.90;;;;;;6127584;23;20195;-64
2021/07/27 03:52:45;;;;;;;16.57;14.90;;;25.10;99.90;;;;;;6127213;23;20175;-64
2021/07/27 03:55:11;;;;;;;17.13;15.33;;;25.10;99.90;;;;;;6125825;23;20166;-64
2021/07/27 03:57:37;;;;;;;19.13;16.07;;;25.00;99.90;;;;;;6127228;23;20175;-68
2021/07/27 04:00:04;;;;;;;16.33;14.63;;;25.00;99.90;;;;;;6127267;23;20473;-68
2021/07/27 04:02:29;;;;;;;18.03;15.03;;;24.90;99.90;;;;;;6125530;23;20680;-68
2021/07/27 04:04:55;;;;;;;19.43;14.60;;;24.90;99.90;;;;;;6127174;23;20400;-64
2021/07/27 04:07:20;;;;;;;16.30;14.60;;;24.80;99.90;;;;;;6126964;23;20257;-64
2021/07/27 04:09:46;;;;;;;18.60;15.50;;;24.80;99.90;;;;;;6127247;23;20162;-64
2021/07/27 04:12:12;;;;;;;18.30;15.40;;;24.70;99.90;;;;;;6126879;23;20175;-64
2021/07/27 04:14:37;;;;;;;18.23;14.47;;;24.70;99.90;;;;;;6127190;23;20164;-66
2021/07/27 04:17:03;;;;;;;17.43;15.63;;;24.60;99.90;;;;;;6126941;23;20173;-68
2021/07/27 04:19:29;;;;;;;17.67;15.17;;;24.60;99.90;;;;;;6127103;23;20165;-68
2021/07/27 04:21:54;;;;;;;17.20;15.30;;;24.60;99.90;;;;;;6126888;23;20610;-64
2021/07/27 04:24:20;;;;;;;18.33;14.90;;;24.50;99.90;;;;;;6127153;23;20161;-67
2021/07/27 04:26:47;;;;;;;21.17;16.27;;;24.50;99.90;;;;;;6126895;23;20197;-67
2021/07/27 04:29:14;;;;;;;21.77;15.80;;;24.50;99.90;;;;;;6127015;23;20188;-64
2021/07/27 04:31:58;;;;;;;17.90;15.43;;;24.50;99.90;;;;;;6126916;23;20400;-67
2021/07/27 04:34:23;;;;;;;18.30;16.37;;;24.40;99.90;;;;;;6127160;23;20393;-64
2021/07/27 04:36:52;;;;;;;18.47;16.60;;;24.40;99.90;;;;;;6127076;23;20401;-68
2021/07/27 04:39:18;;;;;;;30.47;16.77;;;24.40;99.90;;;;;;6126762;23;20690;-64
2021/07/27 04:41:43;;;;;;;20.47;17.00;;;24.40;99.90;;;;;;6125258;23;20405;-63
2021/07/27 04:44:09;;;;;;;19.77;16.10;;;24.40;99.90;;;;;;6126822;23;20649;-64
2021/07/27 04:46:38;;;;;;;17.20;15.40;;;24.40;99.90;;;;;;6126779;23;20257;-67
2021/07/27 04:49:04;;;;;;;18.70;15.40;;;24.40;99.90;;;;;;6125335;23;20195;-68
2021/07/27 04:51:30;;;;;;;19.57;17.00;;;24.40;99.90;;;;;;6126379;23;20389;-64
2021/07/27 04:54:01;;;;;;;19.10;16.30;;;24.40;99.90;;;;;;6127490;23;20229;-68
2021/07/27 04:56:27;;;;;;;18.97;16.97;;;24.40;99.90;;;;;;6128969;23;20502;-66
2021/07/27 04:58:52;;;;;;;18.10;16.23;;;24.40;99.90;;;;;;6126663;23;20393;-68
2021/07/27 05:01:18;;;;;;;19.20;17.23;;;24.40;99.90;;;;;;6128960;23;20174;-68
2021/07/27 05:03:44;;;;;;;20.47;15.50;;;24.50;99.90;;;;;;6127288;23;20253;-63
2021/07/27 05:06:09;;;;;;;20.57;17.63;;;24.50;99.90;;;;;;6128269;23;20159;-64
2021/07/27 05:08:35;;;;;;;24.23;18.63;;;24.60;99.90;;;;;;6128779;23;20166;-64
2021/07/27 05:11:01;;;;;;;21.83;17.07;;;24.60;99.90;;;;;;6129211;23;20156;-68
2021/07/27 05:13:27;;;;;;;18.10;16.23;;;24.60;99.90;;;;;;6128857;23;20159;-67
2021/07/27 05:15:53;;;;;;;20.57;18.40;;;24.70;99.90;;;;;;6127119;23;20403;-64
2021/07/27 05:18:19;;;;;;;21.10;16.33;;;24.70;99.90;;;;;;6128176;23;20183;-67
2021/07/27 05:20:45;;;;;;;18.80;15.63;;;24.80;99.90;;;;;;6125258;23;20854;-67
2021/07/27 05:23:11;;;;;;;19.60;17.10;;;24.90;99.90;;;;;;6124889;23;20579;-64
2021/07/27 05:25:52;;;;;;;22.40;18.13;;;24.90;99.90;;;;;;6128012;23;20386;-64
2021/07/27 05:28:17;;;;;;;23.70;17.77;;;25.00;99.90;;;;;;6126044;23;20206;-64
2021/07/27 05:30:43;;;;;;;31.43;20.37;;;25.00;99.90;;;;;;6125623;23;20464;-67
2021/07/27 05:33:08;;;;;;;18.43;16.43;;;25.10;99.90;;;;;;6123858;23;20191;-64
2021/07/27 05:35:34;;;;;;;19.43;17.27;;;25.20;99.90;;;;;;6125357;23;20163;-69
2021/07/27 05:38:00;;;;;;;18.83;16.87;;;25.20;99.90;;;;;;6123908;23;20218;-68
2021/07/27 05:40:30;;;;;;;18.90;16.87;;;25.30;99.90;;;;;;6126789;23;20143;-67
2021/07/27 05:42:56;;;;;;;18.63;16.70;;;25.30;99.90;;;;;;6125845;23;20499;-64
2021/07/27 05:45:25;;;;;;;20.00;17.40;;;25.40;99.90;;;;;;6122160;23;20410;-68
2021/07/27 05:47:51;;;;;;;17.90;16.00;;;25.50;99.90;;;;;;6123127;23;20203;-64
2021/07/27 05:50:18;;;;;;;18.80;16.80;;;25.60;99.90;;;;;;6123653;23;20436;-67
2021/07/27 05:52:44;;;;;;;17.57;15.57;;;25.70;99.90;;;;;;6125833;23;20413;-64
2021/07/27 05:55:11;;;;;;;20.80;16.60;;;25.80;99.90;;;;;;6124632;23;20381;-64
2021/07/27 05:57:36;;;;;;;18.27;16.33;;;25.90;99.90;;;;;;6118484;23;20187;-64
2021/07/27 06:00:06;;;;;;;21.03;15.97;;;26.00;99.90;;;;;;6120079;23;20381;-64
2021/07/27 06:02:31;;;;;;;16.67;14.63;;;26.10;99.90;;;;;;6123828;23;20179;-64
2021/07/27 06:05:00;;;;;;;22.57;15.90;;;26.20;99.90;;;;;;6125256;23;20375;-68
2021/07/27 06:07:25;;;;;;;126.90;87.97;;;26.20;99.90;;;;;;6121268;23;20258;-64
2021/07/27 06:09:51;;;;;;;17.97;15.90;;;26.30;99.90;;;;;;6126399;23;20370;-64
2021/07/27 06:12:19;;;;;;;19.30;14.97;;;26.40;99.90;;;;;;6122772;23;20186;-68
2021/07/27 06:14:45;;;;;;;17.60;14.40;;;26.60;99.90;;;;;;6122133;23;20156;-68
2021/07/27 06:17:12;;;;;;;16.50;14.80;;;26.60;99.90;;;;;;6124502;23;20429;-68
2021/07/27 06:19:37;;;;;;;14.97;13.00;;;26.70;99.90;;;;;;6124384;23;20147;-64
2021/07/27 06:22:03;;;;;;;15.67;13.97;;;26.80;99.90;;;;;;6122220;23;20744;-64
2021/07/27 06:24:28;;;;;;;19.53;13.73;;;26.90;99.90;;;;;;6123336;23;20140;-64
2021/07/27 06:26:54;;;;;;;15.40;12.33;;;27.10;99.90;;;;;;6123859;23;20246;-64
2021/07/27 06:29:20;;;;;;;18.03;13.93;;;27.10;99.90;;;;;;6124970;23;20170;-64
2021/07/27 06:31:45;;;;;;;17.80;12.93;;;27.30;99.90;;;;;;6146229;23;20188;-68
2021/07/27 06:34:11;;;;;;;18.97;13.33;;;27.40;99.90;;;;;;6123114;23;20160;-68
2021/07/27 06:36:36;;;;;;;15.00;13.00;;;27.50;99.90;;;;;;6123801;23;20187;-68
2021/07/27 06:39:02;;;;;;;15.20;13.00;;;27.60;99.90;;;;;;6123306;23;20246;-65
2021/07/27 06:41:31;;;;;;;19.60;13.10;;;27.70;99.90;;;;;;6122204;23;20194;-64
2021/07/27 06:43:57;;;;;;;13.47;11.40;;;27.80;99.90;;;;;;6120591;23;20729;-68
2021/07/27 06:46:24;;;;;;;14.93;11.20;;;27.80;99.90;;;;;;6122757;23;20907;-67
2021/07/27 06:48:49;;;;;;;13.63;11.27;;;27.90;99.90;;;;;;6122021;23;20463;-68
2021/07/27 06:51:17;;;;;;;12.27;10.73;;;28.00;99.90;;;;;;6125005;23;20571;-64
2021/07/27 06:53:44;;;;;;;14.63;11.03;;;28.10;99.90;;;;;;6122920;23;20591;-68
2021/07/27 06:56:11;;;;;;;13.60;11.80;;;28.30;99.90;;;;;;6121376;23;20368;-64
2021/07/27 06:58:38;;;;;;;14.03;10.80;;;28.30;99.90;;;;;;6123611;23;20434;-68
2021/07/27 07:01:06;;;;;;;13.43;10.63;;;28.50;99.90;;;;;;6124095;23;20365;-64
2021/07/27 07:03:31;;;;;;;15.77;10.50;;;28.50;99.90;;;;;;6123309;23;20381;-68
2021/07/27 07:05:57;;;;;;;12.90;10.20;;;28.60;99.90;;;;;;6122098;23;20523;-64
2021/07/27 07:08:23;;;;;;;13.60;9.00;;;28.70;99.90;;;;;;6124912;23;20197;-64
2021/07/27 07:10:56;;;;;;;17.13;9.70;;;28.80;99.90;;;;;;6124323;23;20229;-68
2021/07/27 07:13:21;;;;;;;11.90;9.80;;;28.90;99.90;;;;;;6120399;23;20404;-68
2021/07/27 07:15:47;;;;;;;15.43;10.03;;;29.00;99.90;;;;;;6119522;23;20363;-68
2021/07/27 07:18:12;;;;;;;12.70;9.70;;;29.00;99.90;;;;;;6120923;23;20862;-64
2021/07/27 07:20:38;;;;;;;17.03;10.93;;;29.10;99.90;;;;;;6116646;23;20155;-64
2021/07/27 07:23:04;;;;;;;12.73;8.73;;;29.20;99.90;;;;;;6122743;23;20191;-64
2021/07/27 07:25:29;;;;;;;9.83;8.03;;;29.20;99.90;;;;;;6122041;23;20220;-68
2021/07/27 07:27:55;;;;;;;9.83;8.80;;;29.30;99.90;;;;;;6121631;23;20206;-64
2021/07/27 07:30:21;;;;;;;14.23;8.77;;;29.40;99.90;;;;;;6122385;23;20221;-64
2021/07/27 07:32:46;;;;;;;13.33;8.00;;;29.50;99.90;;;;;;6122469;23;20241;-68
2021/07/27 07:35:12;;;;;;;10.57;8.00;;;29.60;99.90;;;;;;6118668;23;20190;-68
2021/07/27 07:37:38;;;;;;;10.67;7.73;;;29.70;99.90;;;;;;6122680;23;20285;-65
2021/07/27 07:40:04;;;;;;;12.70;6.97;;;29.80;99.90;;;;;;6117443;23;20634;-64
2021/07/27 07:42:30;;;;;;;13.20;6.70;;;29.90;99.90;;;;;;6118003;23;20829;-64
2021/07/27 07:44:55;;;;;;;10.93;8.23;;;29.90;99.90;;;;;;6123223;23;20369;-64
2021/07/27 07:47:21;;;;;;;8.77;6.47;;;30.00;99.90;;;;;;6123074;23;20196;-64
2021/07/27 07:49:46;;;;;;;9.80;6.53;;;30.10;99.90;;;;;;6123521;23;20208;-68
2021/07/27 07:52:13;;;;;;;7.63;6.63;;;30.20;99.90;;;;;;6120515;23;20191;-68
2021/07/27 07:54:39;;;;;;;8.47;7.13;;;30.30;99.90;;;;;;6123303;23;20589;-64
2021/07/27 07:57:04;;;;;;;7.73;6.73;;;30.30;99.90;;;;;;6123147;23;20423;-68
2021/07/27 07:59:30;;;;;;;8.90;7.00;;;30.40;99.90;;;;;;6125671;23;20162;-64
2021/07/27 08:01:58;;;;;;;10.33;7.10;;;30.40;99.90;;;;;;6125901;23;20256;-68
2021/07/27 08:04:24;;;;;;;10.90;7.00;;;30.50;99.90;;;;;;6122909;23;20167;-68
2021/07/27 08:06:50;;;;;;;8.47;6.73;;;30.60;99.90;;;;;;6124385;23;20441;-68
2021/07/27 08:09:16;;;;;;;8.93;6.47;;;30.60;99.90;;;;;;6119138;23;20480;-64
2021/07/27 08:11:42;;;;;;;12.00;6.47;;;30.70;99.90;;;;;;6120042;23;20514;-69
2021/07/27 08:14:07;;;;;;;11.20;6.93;;;30.80;99.90;;;;;;6122964;23;20144;-69
2021/07/27 08:16:33;;;;;;;10.83;6.80;;;30.80;99.90;;;;;;6144542;23;20435;-69
2021/07/27 08:19:00;;;;;;;11.43;7.80;;;30.90;99.90;;;;;;6119460;23;20151;-66
2021/07/27 08:21:26;;;;;;;11.20;6.87;;;31.00;99.90;;;;;;6121177;23;20617;-68
2021/07/27 08:23:52;;;;;;;10.53;7.00;;;31.10;99.90;;;;;;6120478;23;20442;-66
2021/07/27 08:26:18;;;;;;;13.00;6.63;;;31.20;99.90;;;;;;6122804;23;20175;-69
2021/07/27 08:28:46;;;;;;;8.03;6.60;;;31.30;99.90;;;;;;6120363;23;20151;-65
2021/07/27 08:31:15;;;;;;;11.00;7.53;;;31.40;99.90;;;;;;6122996;23;20453;-66
2021/07/27 08:33:41;;;;;;;9.03;6.57;;;31.50;99.90;;;;;;6122934;23;20713;-66
2021/07/27 08:36:08;;;;;;;8.47;6.13;;;31.60;99.90;;;;;;6124337;23;20707;-65
2021/07/27 08:38:34;;;;;;;9.27;6.03;;;31.60;99.90;;;;;;6118845;23;20504;-65
2021/07/27 08:41:02;;;;;;;9.40;6.03;;;31.80;99.90;;;;;;6119589;23;20429;-65
2021/07/27 08:43:28;;;;;;;7.23;6.00;;;31.80;99.90;;;;;;6123255;23;20401;-69
2021/07/27 08:45:54;;;;;;;14.37;6.10;;;31.90;99.90;;;;;;6124069;23;20386;-68
2021/07/27 08:48:24;;;;;;;6.63;4.90;;;32.00;99.90;;;;;;6121115;23;20195;-68
2021/07/27 08:50:51;;;;;;;8.90;5.50;;;32.10;99.90;;;;;;6116368;23;21054;-69
2021/07/27 08:53:17;;;;;;;7.33;5.47;;;32.20;99.90;;;;;;6122024;23;20504;-68
2021/07/27 08:55:43;;;;;;;9.00;5.20;;;32.20;99.90;;;;;;6117177;23;20385;-68
2021/07/27 08:58:09;;;;;;;7.10;5.00;;;32.20;99.90;;;;;;6117777;23;20516;-68
2021/07/27 09:00:35;;;;;;;6.40;4.70;;;32.20;99.90;;;;;;6119548;23;20661;-65
2021/07/27 09:03:16;;;;;;;7.30;5.20;;;32.20;99.90;;;;;;6120144;23;20259;-65
2021/07/27 09:05:46;;;;;;;11.90;6.50;;;32.30;99.90;;;;;;6123833;23;20148;-69
2021/07/27 09:08:13;;;;;;;7.27;4.97;;;32.30;99.90;;;;;;6120027;23;20453;-68
2021/07/27 09:10:40;;;;;;;8.20;4.60;;;32.40;99.90;;;;;;6120400;23;20453;-66
2021/07/27 09:13:15;;;;;;;6.60;6.00;;;32.40;99.60;;;;;;6122862;23;20711;-65
2021/07/27 09:15:43;;;;;;;6.07;4.70;;;32.40;99.80;;;;;;6117676;23;20581;-65
2021/07/27 09:18:16;;;;;;;5.70;4.70;;;32.40;99.40;;;;;;6117111;23;20667;-69
2021/07/27 09:20:46;;;;;;;9.83;5.00;;;32.40;99.70;;;;;;6117669;23;20460;-66
2021/07/27 09:23:15;;;;;;;7.30;4.37;;;32.40;99.30;;;;;;6122745;23;20422;-65
2021/07/27 09:25:46;;;;;;;8.10;4.90;;;32.40;99.10;;;;;;6123091;23;20541;-66
2021/07/27 09:28:12;;;;;;;7.10;5.10;;;32.40;99.50;;;;;;6121433;23;20919;-68
2021/07/27 09:30:40;;;;;;;9.50;5.37;;;32.40;99.90;;;;;;6120608;23;20367;-66
2021/07/27 09:33:07;;;;;;;10.23;4.90;;;32.40;99.00;;;;;;6121082;23;20954;-69
2021/07/27 09:35:33;;;;;;;6.30;5.20;;;32.50;98.60;;;;;;6117672;23;20400;-66
2021/07/27 09:38:09;;;;;;;13.80;5.30;;;32.60;99.00;;;;;;6120170;23;20485;-69
2021/07/27 09:40:57;;;;;;;8.73;4.80;;;32.60;98.90;;;;;;6125141;23;20409;-66
2021/07/27 09:43:24;;;;;;;11.43;4.83;;;32.70;98.00;;;;;;6124886;23;20473;-68
2021/07/27 09:45:52;;;;;;;10.73;5.23;;;32.80;97.50;;;;;;6126750;23;20406;-66
2021/07/27 09:48:19;;;;;;;6.97;4.90;;;32.80;97.40;;;;;;6125645;23;21220;-66
2021/07/27 09:50:46;;;;;;;7.43;4.60;;;32.90;97.30;;;;;;6123553;23;20381;-70
2021/07/27 09:53:13;;;;;;;8.57;4.43;;;32.90;97.10;;;;;;6123968;23;20410;-66
2021/07/27 09:55:39;;;;;;;9.47;4.33;;;33.00;96.50;;;;;;6121826;23;20378;-69
2021/07/27 09:58:04;;;;;;;9.33;4.40;;;33.00;96.10;;;;;;6122783;23;20429;-68
2021/07/27 10:00:31;;;;;;;7.17;4.63;;;33.00;95.90;;;;;;6123360;23;20152;-70
2021/07/27 10:02:58;;;;;;;8.60;3.47;;;33.10;96.30;;;;;;6120610;23;20176;-68
2021/07/27 10:05:26;;;;;;;5.77;3.37;;;33.10;95.30;;;;;;6121207;23;20366;-66
2021/07/27 10:07:57;;;;;;;13.60;4.23;;;33.20;95.00;;;;;;6120950;23;20971;-68
2021/07/27 10:10:46;;;;;;;9.20;4.60;;;33.30;95.40;;;;;;6121006;23;20555;-65
2021/07/27 10:13:13;;;;;;;7.47;3.90;;;33.30;95.10;;;;;;6120172;23;20437;-66
2021/07/27 10:15:46;;;;;;;6.90;4.20;;;33.40;94.50;;;;;;6121759;23;20390;-69
2021/07/27 10:18:13;;;;;;;8.37;4.57;;;33.50;94.50;;;;;;6123633;23;20405;-68
2021/07/27 10:20:39;;;;;;;7.80;4.13;;;33.50;93.80;;;;;;6123208;23;20800;-69
2021/07/27 10:23:19;;;;;;;5.50;3.50;;;33.50;94.10;;;;;;6121655;23;20911;-65
2021/07/27 10:25:56;;;;;;;5.30;4.00;;;33.50;94.00;;;;;;6123415;23;20728;-65
2021/07/27 10:28:23;;;;;;;7.20;4.60;;;33.50;93.50;;;;;;6124685;23;20749;-66
2021/07/27 10:31:07;;;;;;;9.13;4.00;;;33.50;94.00;;;;;;6122229;23;20726;-65
2021/07/27 10:33:33;;;;;;;10.47;4.03;;;33.60;93.40;;;;;;6124959;23;20374;-66
2021/07/27 10:35:59;;;;;;;8.27;4.37;;;33.60;93.20;;;;;;6125918;23;20417;-69
2021/07/27 10:38:36;;;;;;;10.93;4.37;;;33.70;93.20;;;;;;6127204;23;20433;-69
2021/07/27 10:41:16;;;;;;;5.13;3.70;;;33.70;92.30;;;;;;6123086;23;20421;-69
2021/07/27 10:43:42;;;;;;;6.43;3.87;;;33.70;91.50;;;;;;6123649;23;20397;-69
2021/07/27 10:46:10;;;;;;;7.23;3.90;;;33.80;90.60;;;;;;6121178;23;20367;-69
2021/07/27 10:48:38;;;;;;;9.40;4.20;;;33.80;90.00;;;;;;6122160;23;20513;-69
2021/07/27 10:51:04;;;;;;;7.63;4.30;;;33.80;89.90;;;;;;6125360;23;20354;-66
2021/07/27 10:53:33;;;;;;;5.60;3.97;;;33.80;89.40;;;;;;6124588;23;20916;-65
2021/07/27 10:56:04;;;;;;;11.23;4.80;;;33.90;88.10;;;;;;6127247;23;20144;-65
2021/07/27 10:58:30;;;;;;;6.30;4.03;;;33.90;89.00;;;;;;6126788;23;20406;-66
2021/07/27 11:01:10;;;;;;;6.37;4.13;;;33.90;88.80;;;;;;6125639;23;20391;-66
2021/07/27 11:03:36;;;;;;;5.80;3.67;;;34.00;89.50;;;;;;6123598;23;20445;-69
2021/07/27 11:06:03;;;;;;;5.23;3.40;;;34.00;89.10;;;;;;6123852;23;20911;-66
2021/07/27 11:08:29;;;;;;;11.00;4.63;;;34.10;88.30;;;;;;6124814;23;20442;-69
2021/07/27 11:11:05;;;;;;;9.13;4.53;;;34.10;88.80;;;;;;6124754;23;20741;-66
2021/07/27 11:13:32;;;;;;;6.70;4.50;;;34.20;89.80;;;;;;6123555;23;20378;-66
2021/07/27 11:16:00;;;;;;;5.63;3.90;;;34.20;88.70;;;;;;6122758;23;20834;-67
2021/07/27 11:18:27;;;;;;;7.03;4.30;;;34.30;88.80;;;;;;6124609;23;20394;-64
2021/07/27 11:20:53;;;;;;;11.40;4.07;;;34.30;88.50;;;;;;6122321;23;20781;-68
2021/07/27 11:23:19;;;;;;;4.67;3.73;;;34.30;88.60;;;;;;6122604;23;20517;-64
2021/07/27 11:25:58;;;;;;;7.10;4.40;;;34.30;88.40;;;;;;6120776;23;20367;-65
2021/07/27 11:28:38;;;;;;;7.03;3.73;;;34.30;87.70;;;;;;6124901;23;20191;-66
2021/07/27 11:31:18;;;;;;;5.87;3.93;;;34.30;87.80;;;;;;6125306;23;20373;-68
2021/07/27 11:33:53;;;;;;;8.00;3.90;;;34.40;86.80;;;;;;6123657;23;20366;-65
2021/07/27 11:36:26;;;;;;;7.50;3.80;;;34.40;87.40;;;;;;6122411;23;20398;-64
2021/07/27 11:39:07;;;;;;;8.20;4.03;;;34.40;87.70;;;;;;6120250;23;20838;-65
2021/07/27 11:41:33;;;;;;;4.07;3.43;;;34.40;88.30;;;;;;6119404;23;20496;-64
2021/07/27 11:43:58;;;;;;;8.40;4.70;;;34.40;87.00;;;;;;6119154;23;20860;-65
2021/07/27 11:46:38;;;;;;;7.50;4.03;;;34.40;88.10;;;;;;6121569;23;20266;-64
2021/07/27 11:49:08;;;;;;;6.17;3.80;;;34.40;88.90;;;;;;6125137;23;20598;-68
2021/07/27 11:51:36;;;;;;;5.93;4.27;;;34.40;87.30;;;;;;6122923;23;20413;-67
2021/07/27 11:54:01;;;;;;;5.17;3.63;;;34.50;87.00;;;;;;6121233;23;20478;-68
2021/07/27 11:56:27;;;;;;;6.47;3.60;;;34.50;86.30;;;;;;6122777;23;20801;-66
2021/07/27 11:59:01;;;;;;;6.50;4.47;;;34.50;85.40;;;;;;6120535;23;20496;-69
2021/07/27 12:01:40;;;;;;;6.30;3.83;;;34.60;83.70;;;;;;6122882;23;20410;-65
2021/07/27 12:04:06;;;;;;;8.67;4.30;;;34.60;84.20;;;;;;6123355;23;20688;-65
2021/07/27 12:06:32;;;;;;;8.60;3.90;;;34.60;84.70;;;;;;6123962;23;20440;-69
2021/07/27 12:09:01;;;;;;;5.77;3.37;;;34.60;85.30;;;;;;6120383;23;20599;-65
2021/07/27 12:11:27;;;;;;;5.53;3.70;;;34.60;84.00;;;;;;6116847;23;20422;-69
2021/07/27 12:13:52;;;;;;;16.87;4.20;;;34.60;83.20;;;;;;6118044;23;20457;-65
2021/07/27 12:16:18;;;;;;;8.10;4.17;;;34.60;83.20;;;;;;6122866;23;20183;-68
2021/07/27 12:18:44;;;;;;;5.60;4.03;;;34.60;81.70;;;;;;6120134;23;20144;-65
2021/07/27 12:21:09;;;;;;;10.70;4.20;;;34.60;81.90;;;;;;6121321;23;20474;-69
2021/07/27 12:23:35;;;;;;;5.37;3.57;;;34.70;83.10;;;;;;6123264;23;20141;-69
2021/07/27 12:26:05;;;;;;;5.70;3.30;;;34.70;83.30;;;;;;6122471;23;20175;-70
2021/07/27 12:28:30;;;;;;;11.60;3.90;;;34.80;82.90;;;;;;6122340;23;20267;-69
2021/07/27 12:30:56;;;;;;;4.63;3.73;;;34.80;81.70;;;;;;6122519;23;20406;-69
2021/07/27 12:33:22;;;;;;;6.50;3.50;;;34.90;81.00;;;;;;6121742;23;20406;-68
2021/07/27 12:35:47;;;;;;;7.20;4.67;;;34.90;79.80;;;;;;6121067;23;20151;-65
2021/07/27 12:38:13;;;;;;;7.27;3.60;;;34.90;80.20;;;;;;6118438;23;20663;-69
2021/07/27 12:40:38;;;;;;;7.00;4.10;;;34.90;81.00;;;;;;6121837;23;20195;-65
2021/07/27 12:43:04;;;;;;;6.53;3.87;;;34.90;82.20;;;;;;6120558;23;20207;-69
2021/07/27 12:45:32;;;;;;;7.07;3.83;;;34.90;81.80;;;;;;6120550;23;20227;-71
2021/07/27 12:47:59;;;;;;;8.33;3.93;;;35.00;82.40;;;;;;6122044;23;20192;-69
2021/07/27 12:50:25;;;;;;;4.97;3.60;;;35.00;81.80;;;;;;6120036;23;20398;-69
2021/07/27 12:52:50;;;;;;;12.83;4.30;;;35.00;81.50;;;;;;6120897;23;20430;-70
2021/07/27 12:55:16;;;;;;;5.50;3.53;;;35.00;81.00;;;;;;6120605;23;20170;-69